WMKM/MKZ METAR and TAF weather

Enter ICAO airport designator
Station Type Date Time Source
WMKM METAR 2018/12/11 20:00 UTC NOAA

WMKM 112000Z 00000KT 9000 FEW010 FEW017CB BKN140 BKN280 24/24 Q1010


Station Type Date Time Source
WMKM Decoded METAR 2018/12/11 20:00 UTC NOAA

Malacca, Malaysia (WMKM) 02-16N 102-15E 9M
Dec 11, 2018 - 03:00 PM EST / 2018.12.11 2000 UTC
Wind: Calm:0
Visibility: 5 mile(s):0
Sky conditions: mostly cloudy
Weather: Cumulonimbus clouds observed
Temperature: 75 F (24 C)
Dew Point: 75 F (24 C)
Relative Humidity: 100%
Pressure (altimeter): 29.83 in. Hg (1010 hPa)
ob: WMKM 112000Z 00000KT 9000 FEW010 FEW017CB BKN140 BKN280 24/24 Q1010
cycle: 20

Station Type Date Time Source
WMKM TAF 2018/12/11 18:00 UTC NOAA

TAF WMKM 111700Z 1118/1218 VRB02KT 9999 FEW017CB
BECMG 1200/1202 26005KT PROB30
TEMPO 1207/1211 4000 TSRA FEW015CB SCT018


Example: see airport list